sensor_id;sensor_type;location;lat;lon;timestamp;temperature;humidity
67182;DHT22;54114;53.524;49.396;2022-09-03T00:00:55;13.20;52.80
67182;DHT22;54114;53.524;49.396;2022-09-03T00:06:20;13.10;53.10
67182;DHT22;54114;53.524;49.396;2022-09-03T00:08:57;13.10;53.20
67182;DHT22;54114;53.524;49.396;2022-09-03T00:14:46;12.90;53.30
67182;DHT22;54114;53.524;49.396;2022-09-03T00:17:20;12.90;53.50
67182;DHT22;54114;53.524;49.396;2022-09-03T00:19:55;12.90;53.50
67182;DHT22;54114;53.524;49.396;2022-09-03T00:22:53;12.80;53.60
67182;DHT22;54114;53.524;49.396;2022-09-03T00:25:34;12.80;53.70
67182;DHT22;54114;53.524;49.396;2022-09-03T00:28:14;12.80;53.70
67182;DHT22;54114;53.524;49.396;2022-09-03T00:30:45;12.80;53.70
67182;DHT22;54114;53.524;49.396;2022-09-03T00:33:26;12.70;53.90
67182;DHT22;54114;53.524;49.396;2022-09-03T00:38:30;12.50;54.50
67182;DHT22;54114;53.524;49.396;2022-09-03T00:41:24;12.40;54.80
67182;DHT22;54114;53.524;49.396;2022-09-03T00:49:42;12.10;55.90
67182;DHT22;54114;53.524;49.396;2022-09-03T00:55:42;11.90;56.60
67182;DHT22;54114;53.524;49.396;2022-09-03T00:58:19;11.80;56.90
67182;DHT22;54114;53.524;49.396;2022-09-03T01:01:24;11.70;57.10
67182;DHT22;54114;53.524;49.396;2022-09-03T01:04:25;11.70;56.60
67182;DHT22;54114;53.524;49.396;2022-09-03T01:07:36;11.60;57.00
67182;DHT22;54114;53.524;49.396;2022-09-03T01:10:26;11.50;57.20
67182;DHT22;54114;53.524;49.396;2022-09-03T01:13:06;11.50;57.60
67182;DHT22;54114;53.524;49.396;2022-09-03T01:21:47;11.20;58.50
67182;DHT22;54114;53.524;49.396;2022-09-03T01:27:45;11.20;59.10
67182;DHT22;54114;53.524;49.396;2022-09-03T01:30:39;11.20;59.20
67182;DHT22;54114;53.524;49.396;2022-09-03T01:48:30;10.90;59.80
67182;DHT22;54114;53.524;49.396;2022-09-03T01:54:15;10.90;59.40
67182;DHT22;54114;53.524;49.396;2022-09-03T02:00:00;10.90;59.80
67182;DHT22;54114;53.524;49.396;2022-09-03T02:02:31;10.90;59.90
67182;DHT22;54114;53.524;49.396;2022-09-03T02:05:01;10.90;59.80
67182;DHT22;54114;53.524;49.396;2022-09-03T02:07:39;10.90;60.10
67182;DHT22;54114;53.524;49.396;2022-09-03T02:10:16;10.80;60.50
67182;DHT22;54114;53.524;49.396;2022-09-03T02:12:50;10.80;60.80
67182;DHT22;54114;53.524;49.396;2022-09-03T02:15:21;10.80;61.10
67182;DHT22;54114;53.524;49.396;2022-09-03T02:17:53;10.80;61.30
67182;DHT22;54114;53.524;49.396;2022-09-03T02:20:24;10.80;61.50
67182;DHT22;54114;53.524;49.396;2022-09-03T02:22:53;10.80;61.50
67182;DHT22;54114;53.524;49.396;2022-09-03T02:25:22;10.80;61.50
67182;DHT22;54114;53.524;49.396;2022-09-03T02:27:52;10.90;61.70
67182;DHT22;54114;53.524;49.396;2022-09-03T02:30:18;10.90;61.70
67182;DHT22;54114;53.524;49.396;2022-09-03T02:32:45;11.00;61.70
67182;DHT22;54114;53.524;49.396;2022-09-03T02:35:12;11.00;61.80
67182;DHT22;54114;53.524;49.396;2022-09-03T02:37:39;11.20;61.70
67182;DHT22;54114;53.524;49.396;2022-09-03T02:40:06;11.30;61.60
67182;DHT22;54114;53.524;49.396;2022-09-03T02:42:35;11.50;61.20
67182;DHT22;54114;53.524;49.396;2022-09-03T02:45:23;11.60;61.00
67182;DHT22;54114;53.524;49.396;2022-09-03T02:47:56;11.80;60.60
67182;DHT22;54114;53.524;49.396;2022-09-03T02:50:25;12.00;60.40
67182;DHT22;54114;53.524;49.396;2022-09-03T02:52:52;12.10;60.60
67182;DHT22;54114;53.524;49.396;2022-09-03T02:55:19;12.30;59.80
67182;DHT22;54114;53.524;49.396;2022-09-03T02:57:46;12.40;59.60
67182;DHT22;54114;53.524;49.396;2022-09-03T03:00:13;12.60;59.40
67182;DHT22;54114;53.524;49.396;2022-09-03T03:02:40;12.70;59.10
67182;DHT22;54114;53.524;49.396;2022-09-03T03:05:10;12.90;58.90
67182;DHT22;54114;53.524;49.396;2022-09-03T03:07:41;13.10;58.60
67182;DHT22;54114;53.524;49.396;2022-09-03T03:10:08;13.30;58.20
67182;DHT22;54114;53.524;49.396;2022-09-03T03:12:35;13.60;57.80
67182;DHT22;54114;53.524;49.396;2022-09-03T03:15:02;13.80;57.40
67182;DHT22;54114;53.524;49.396;2022-09-03T03:17:29;14.00;57.00
67182;DHT22;54114;53.524;49.396;2022-09-03T03:19:56;14.30;56.60
67182;DHT22;54114;53.524;49.396;2022-09-03T03:22:23;14.60;55.90
67182;DHT22;54114;53.524;49.396;2022-09-03T03:24:49;14.80;55.30
67182;DHT22;54114;53.524;49.396;2022-09-03T03:27:17;15.00;55.10
67182;DHT22;54114;53.524;49.396;2022-09-03T03:29:45;15.20;54.50
67182;DHT22;54114;53.524;49.396;2022-09-03T03:32:11;15.40;54.00
67182;DHT22;54114;53.524;49.396;2022-09-03T03:34:38;15.70;53.40
67182;DHT22;54114;53.524;49.396;2022-09-03T03:37:04;15.90;52.80
67182;DHT22;54114;53.524;49.396;2022-09-03T03:39:31;16.20;52.20
67182;DHT22;54114;53.524;49.396;2022-09-03T03:41:58;16.40;51.60
67182;DHT22;54114;53.524;49.396;2022-09-03T03:44:24;16.70;51.00
67182;DHT22;54114;53.524;49.396;2022-09-03T03:46:51;16.90;50.50
67182;DHT22;54114;53.524;49.396;2022-09-03T03:49:18;17.30;49.90
67182;DHT22;54114;53.524;49.396;2022-09-03T03:51:45;17.50;49.70
67182;DHT22;54114;53.524;49.396;2022-09-03T03:54:11;17.80;48.70
67182;DHT22;54114;53.524;49.396;2022-09-03T03:56:38;18.00;48.10
67182;DHT22;54114;53.524;49.396;2022-09-03T03:59:05;18.30;47.60
67182;DHT22;54114;53.524;49.396;2022-09-03T04:01:32;18.60;47.10
67182;DHT22;54114;53.524;49.396;2022-09-03T04:03:58;18.90;46.30
67182;DHT22;54114;53.524;49.396;2022-09-03T04:06:26;19.30;45.70
67182;DHT22;54114;53.524;49.396;2022-09-03T04:08:53;19.60;45.20
67182;DHT22;54114;53.524;49.396;2022-09-03T04:11:21;19.90;44.50
67182;DHT22;54114;53.524;49.396;2022-09-03T04:13:49;20.00;43.80
67182;DHT22;54114;53.524;49.396;2022-09-03T04:16:22;20.30;43.00
67182;DHT22;54114;53.524;49.396;2022-09-03T04:18:52;20.60;42.20
67182;DHT22;54114;53.524;49.396;2022-09-03T04:21:22;20.90;41.70
67182;DHT22;54114;53.524;49.396;2022-09-03T04:23:52;21.10;41.10
67182;DHT22;54114;53.524;49.396;2022-09-03T04:26:22;21.40;40.40
67182;DHT22;54114;53.524;49.396;2022-09-03T04:28:50;21.70;39.60
67182;DHT22;54114;53.524;49.396;2022-09-03T04:31:19;22.00;39.30
67182;DHT22;54114;53.524;49.396;2022-09-03T04:33:46;22.30;39.00
67182;DHT22;54114;53.524;49.396;2022-09-03T04:38:41;23.10;37.30
67182;DHT22;54114;53.524;49.396;2022-09-03T04:41:11;23.50;36.10
67182;DHT22;54114;53.524;49.396;2022-09-03T04:43:40;23.90;35.20
67182;DHT22;54114;53.524;49.396;2022-09-03T04:46:10;24.30;34.40
67182;DHT22;54114;53.524;49.396;2022-09-03T04:48:38;24.50;33.70
67182;DHT22;54114;53.524;49.396;2022-09-03T04:51:07;24.60;33.50
67182;DHT22;54114;53.524;49.396;2022-09-03T04:53:37;24.80;32.90
67182;DHT22;54114;53.524;49.396;2022-09-03T04:56:14;25.00;32.90
67182;DHT22;54114;53.524;49.396;2022-09-03T04:58:42;25.40;32.30
67182;DHT22;54114;53.524;49.396;2022-09-03T05:01:11;25.40;31.70
67182;DHT22;54114;53.524;49.396;2022-09-03T05:03:40;25.40;31.20
67182;DHT22;54114;53.524;49.396;2022-09-03T05:06:07;25.50;31.10
67182;DHT22;54114;53.524;49.396;2022-09-03T05:08:34;25.80;30.60
67182;DHT22;54114;53.524;49.396;2022-09-03T05:11:06;26.00;30.40
67182;DHT22;54114;53.524;49.396;2022-09-03T05:13:34;26.40;30.10
67182;DHT22;54114;53.524;49.396;2022-09-03T05:16:09;26.90;29.80
67182;DHT22;54114;53.524;49.396;2022-09-03T05:18:38;27.40;29.30
67182;DHT22;54114;53.524;49.396;2022-09-03T05:21:11;27.80;28.50
67182;DHT22;54114;53.524;49.396;2022-09-03T05:23:41;28.00;28.40
67182;DHT22;54114;53.524;49.396;2022-09-03T05:26:15;28.20;28.20
67182;DHT22;54114;53.524;49.396;2022-09-03T05:28:44;28.40;27.80
67182;DHT22;54114;53.524;49.396;2022-09-03T05:31:16;28.30;27.50
67182;DHT22;54114;53.524;49.396;2022-09-03T05:33:49;28.30;27.40
67182;DHT22;54114;53.524;49.396;2022-09-03T05:36:19;28.40;27.50
67182;DHT22;54114;53.524;49.396;2022-09-03T05:38:48;28.60;27.40
67182;DHT22;54114;53.524;49.396;2022-09-03T05:41:16;28.70;27.20
67182;DHT22;54114;53.524;49.396;2022-09-03T05:43:44;28.80;26.90
67182;DHT22;54114;53.524;49.396;2022-09-03T05:46:12;28.80;26.70
67182;DHT22;54114;53.524;49.396;2022-09-03T05:48:43;28.80;26.60
67182;DHT22;54114;53.524;49.396;2022-09-03T05:51:12;28.80;26.80
67182;DHT22;54114;53.524;49.396;2022-09-03T05:53:43;28.80;26.70
67182;DHT22;54114;53.524;49.396;2022-09-03T05:56:17;28.70;26.80
67182;DHT22;54114;53.524;49.396;2022-09-03T05:58:47;28.70;26.90
67182;DHT22;54114;53.524;49.396;2022-09-03T06:01:20;29.00;26.90
67182;DHT22;54114;53.524;49.396;2022-09-03T06:03:53;29.20;26.80
67182;DHT22;54114;53.524;49.396;2022-09-03T06:06:26;29.20;26.60
67182;DHT22;54114;53.524;49.396;2022-09-03T06:21:13;28.90;26.10
67182;DHT22;54114;53.524;49.396;2022-09-03T06:23:41;28.20;25.60
67182;DHT22;54114;53.524;49.396;2022-09-03T06:26:12;28.30;25.60
67182;DHT22;54114;53.524;49.396;2022-09-03T06:28:41;28.60;25.50
67182;DHT22;54114;53.524;49.396;2022-09-03T06:31:13;28.80;25.40
67182;DHT22;54114;53.524;49.396;2022-09-03T06:33:42;28.80;25.40
67182;DHT22;54114;53.524;49.396;2022-09-03T06:36:15;28.80;25.50
67182;DHT22;54114;53.524;49.396;2022-09-03T06:38:44;28.90;25.40
67182;DHT22;54114;53.524;49.396;2022-09-03T06:41:14;28.90;25.50
67182;DHT22;54114;53.524;49.396;2022-09-03T06:43:48;29.20;25.10
67182;DHT22;54114;53.524;49.396;2022-09-03T06:46:17;29.30;25.00
67182;DHT22;54114;53.524;49.396;2022-09-03T06:48:45;29.60;25.10
67182;DHT22;54114;53.524;49.396;2022-09-03T06:51:14;30.00;25.00
67182;DHT22;54114;53.524;49.396;2022-09-03T06:53:45;30.40;24.60
67182;DHT22;54114;53.524;49.396;2022-09-03T06:56:18;30.50;24.40
67182;DHT22;54114;53.524;49.396;2022-09-03T06:58:54;30.60;24.40
67182;DHT22;54114;53.524;49.396;2022-09-03T07:01:24;30.70;24.40
67182;DHT22;54114;53.524;49.396;2022-09-03T07:03:58;30.80;24.10
67182;DHT22;54114;53.524;49.396;2022-09-03T07:06:31;31.10;23.90
67182;DHT22;54114;53.524;49.396;2022-09-03T07:09:02;31.50;23.70
67182;DHT22;54114;53.524;49.396;2022-09-03T07:11:29;31.70;23.40
67182;DHT22;54114;53.524;49.396;2022-09-03T07:13:58;31.70;23.30
67182;DHT22;54114;53.524;49.396;2022-09-03T07:16:31;31.60;23.40
67182;DHT22;54114;53.524;49.396;2022-09-03T07:19:02;31.60;23.30
67182;DHT22;54114;53.524;49.396;2022-09-03T07:21:32;31.70;23.30
67182;DHT22;54114;53.524;49.396;2022-09-03T07:24:01;32.10;23.20
67182;DHT22;54114;53.524;49.396;2022-09-03T07:26:31;32.50;23.10
67182;DHT22;54114;53.524;49.396;2022-09-03T07:29:06;32.80;22.80
67182;DHT22;54114;53.524;49.396;2022-09-03T07:31:38;33.00;22.80
67182;DHT22;54114;53.524;49.396;2022-09-03T07:34:08;32.90;22.70
67182;DHT22;54114;53.524;49.396;2022-09-03T07:36:39;33.10;22.70
67182;DHT22;54114;53.524;49.396;2022-09-03T07:39:09;33.20;22.70
67182;DHT22;54114;53.524;49.396;2022-09-03T07:41:40;33.20;22.40
67182;DHT22;54114;53.524;49.396;2022-09-03T07:44:15;33.00;22.30
67182;DHT22;54114;53.524;49.396;2022-09-03T07:46:44;32.70;22.50
67182;DHT22;54114;53.524;49.396;2022-09-03T07:49:12;32.30;22.50
67182;DHT22;54114;53.524;49.396;2022-09-03T07:51:39;32.10;22.80
67182;DHT22;54114;53.524;49.396;2022-09-03T07:54:08;32.30;22.80
67182;DHT22;54114;53.524;49.396;2022-09-03T07:56:37;32.40;22.70
67182;DHT22;54114;53.524;49.396;2022-09-03T07:59:05;32.70;22.60
67182;DHT22;54114;53.524;49.396;2022-09-03T08:01:32;33.10;22.50
67182;DHT22;54114;53.524;49.396;2022-09-03T08:04:01;33.10;22.40
67182;DHT22;54114;53.524;49.396;2022-09-03T08:06:29;33.40;22.40
67182;DHT22;54114;53.524;49.396;2022-09-03T08:09:01;33.50;22.40
67182;DHT22;54114;53.524;49.396;2022-09-03T08:11:29;33.80;22.10
67182;DHT22;54114;53.524;49.396;2022-09-03T08:13:58;33.70;22.00
67182;DHT22;54114;53.524;49.396;2022-09-03T08:16:36;33.60;22.00
67182;DHT22;54114;53.524;49.396;2022-09-03T08:19:07;33.40;22.00
67182;DHT22;54114;53.524;49.396;2022-09-03T08:21:34;33.30;22.20
67182;DHT22;54114;53.524;49.396;2022-09-03T08:24:01;33.40;22.30
67182;DHT22;54114;53.524;49.396;2022-09-03T08:26:30;33.20;22.20
67182;DHT22;54114;53.524;49.396;2022-09-03T08:28:58;33.20;22.30
67182;DHT22;54114;53.524;49.396;2022-09-03T08:31:25;33.40;22.20
67182;DHT22;54114;53.524;49.396;2022-09-03T08:33:54;33.40;21.90
67182;DHT22;54114;53.524;49.396;2022-09-03T08:36:29;33.20;22.00
67182;DHT22;54114;53.524;49.396;2022-09-03T08:38:57;33.00;22.10
67182;DHT22;54114;53.524;49.396;2022-09-03T08:52:24;33.20;22.40
67182;DHT22;54114;53.524;49.396;2022-09-03T08:55:24;33.30;22.30
67182;DHT22;54114;53.524;49.396;2022-09-03T08:57:59;33.40;22.20
67182;DHT22;54114;53.524;49.396;2022-09-03T09:20:08;34.10;21.90
67182;DHT22;54114;53.524;49.396;2022-09-03T09:23:02;33.60;21.80
67182;DHT22;54114;53.524;49.396;2022-09-03T09:25:39;33.20;22.00
67182;DHT22;54114;53.524;49.396;2022-09-03T09:28:18;32.80;22.20
67182;DHT22;54114;53.524;49.396;2022-09-03T09:30:48;32.60;22.40
67182;DHT22;54114;53.524;49.396;2022-09-03T09:33:17;32.80;22.40
67182;DHT22;54114;53.524;49.396;2022-09-03T09:35:46;33.10;22.30
67182;DHT22;54114;53.524;49.396;2022-09-03T09:38:13;33.00;22.20
67182;DHT22;54114;53.524;49.396;2022-09-03T09:40:42;32.40;22.30
67182;DHT22;54114;53.524;49.396;2022-09-03T09:43:15;31.90;23.10
67182;DHT22;54114;53.524;49.396;2022-09-03T09:45:49;32.00;22.70
67182;DHT22;54114;53.524;49.396;2022-09-03T09:48:22;32.00;22.70
67182;DHT22;54114;53.524;49.396;2022-09-03T09:51:17;31.70;22.80
67182;DHT22;54114;53.524;49.396;2022-09-03T09:54:03;31.80;22.90
67182;DHT22;54114;53.524;49.396;2022-09-03T09:56:40;31.90;22.80
67182;DHT22;54114;53.524;49.396;2022-09-03T09:59:09;31.70;22.90
67182;DHT22;54114;53.524;49.396;2022-09-03T10:01:44;31.70;22.80
67182;DHT22;54114;53.524;49.396;2022-09-03T10:04:20;31.70;22.90
67182;DHT22;54114;53.524;49.396;2022-09-03T10:07:04;31.60;23.00
67182;DHT22;54114;53.524;49.396;2022-09-03T10:13:08;31.70;23.00
67182;DHT22;54114;53.524;49.396;2022-09-03T10:16:06;32.10;23.00
67182;DHT22;54114;53.524;49.396;2022-09-03T10:18:50;32.80;22.70
67182;DHT22;54114;53.524;49.396;2022-09-03T10:22:01;33.10;22.50
67182;DHT22;54114;53.524;49.396;2022-09-03T10:27:15;33.70;22.40
67182;DHT22;54114;53.524;49.396;2022-09-03T10:29:43;34.20;22.10
67182;DHT22;54114;53.524;49.396;2022-09-03T10:38:09;35.20;21.50
67182;DHT22;54114;53.524;49.396;2022-09-03T10:40:59;35.10;21.30
67182;DHT22;54114;53.524;49.396;2022-09-03T10:43:52;34.80;21.40
67182;DHT22;54114;53.524;49.396;2022-09-03T10:47:03;34.60;21.70
67182;DHT22;54114;53.524;49.396;2022-09-03T10:52:31;34.80;21.20
67182;DHT22;54114;53.524;49.396;2022-09-03T10:55:34;35.00;21.10
67182;DHT22;54114;53.524;49.396;2022-09-03T10:58:58;34.80;21.00
67182;DHT22;54114;53.524;49.396;2022-09-03T11:01:57;34.30;21.40
67182;DHT22;54114;53.524;49.396;2022-09-03T11:05:10;34.20;21.40
67182;DHT22;54114;53.524;49.396;2022-09-03T11:07:52;34.10;21.50
67182;DHT22;54114;53.524;49.396;2022-09-03T11:15:59;34.10;21.50
67182;DHT22;54114;53.524;49.396;2022-09-03T11:20:58;33.70;21.70
67182;DHT22;54114;53.524;49.396;2022-09-03T11:23:33;33.70;21.70
67182;DHT22;54114;53.524;49.396;2022-09-03T11:26:07;33.70;21.70
67182;DHT22;54114;53.524;49.396;2022-09-03T11:31:51;33.60;21.80
67182;DHT22;54114;53.524;49.396;2022-09-03T11:34:46;33.60;21.90
67182;DHT22;54114;53.524;49.396;2022-09-03T11:40:12;33.20;21.70
67182;DHT22;54114;53.524;49.396;2022-09-03T11:42:45;33.10;21.90
67182;DHT22;54114;53.524;49.396;2022-09-03T11:47:52;32.90;22.00
67182;DHT22;54114;53.524;49.396;2022-09-03T11:50:26;33.00;22.00
67182;DHT22;54114;53.524;49.396;2022-09-03T11:53:21;33.00;21.90
67182;DHT22;54114;53.524;49.396;2022-09-03T11:56:11;32.90;21.90
67182;DHT22;54114;53.524;49.396;2022-09-03T11:59:15;32.90;22.10
67182;DHT22;54114;53.524;49.396;2022-09-03T12:01:57;32.90;22.20
67182;DHT22;54114;53.524;49.396;2022-09-03T12:10:58;33.40;22.00
67182;DHT22;54114;53.524;49.396;2022-09-03T12:14:12;33.50;21.80
67182;DHT22;54114;53.524;49.396;2022-09-03T12:19:51;33.50;21.80
67182;DHT22;54114;53.524;49.396;2022-09-03T12:22:22;33.30;21.70
67182;DHT22;54114;53.524;49.396;2022-09-03T12:24:50;33.10;21.90
67182;DHT22;54114;53.524;49.396;2022-09-03T12:27:25;33.10;21.90
67182;DHT22;54114;53.524;49.396;2022-09-03T12:29:58;33.00;21.90
67182;DHT22;54114;53.524;49.396;2022-09-03T12:32:31;33.00;21.90
67182;DHT22;54114;53.524;49.396;2022-09-03T12:35:16;32.90;21.90
67182;DHT22;54114;53.524;49.396;2022-09-03T12:37:45;32.80;22.00
67182;DHT22;54114;53.524;49.396;2022-09-03T12:40:30;32.70;22.00
67182;DHT22;54114;53.524;49.396;2022-09-03T12:43:12;32.70;22.10
67182;DHT22;54114;53.524;49.396;2022-09-03T12:45:47;32.60;22.10
67182;DHT22;54114;53.524;49.396;2022-09-03T12:48:17;32.40;22.00
67182;DHT22;54114;53.524;49.396;2022-09-03T12:50:46;32.30;22.10
67182;DHT22;54114;53.524;49.396;2022-09-03T12:53:23;32.20;22.20
67182;DHT22;54114;53.524;49.396;2022-09-03T12:55:53;32.00;22.30
67182;DHT22;54114;53.524;49.396;2022-09-03T13:04:04;31.50;22.50
67182;DHT22;54114;53.524;49.396;2022-09-03T13:09:27;31.40;22.70
67182;DHT22;54114;53.524;49.396;2022-09-03T13:11:55;31.20;22.70
67182;DHT22;54114;53.524;49.396;2022-09-03T13:14:25;31.10;22.80
67182;DHT22;54114;53.524;49.396;2022-09-03T13:17:41;31.00;23.00
67182;DHT22;54114;53.524;49.396;2022-09-03T13:20:20;31.00;23.10
67182;DHT22;54114;53.524;49.396;2022-09-03T13:23:12;30.90;23.00
67182;DHT22;54114;53.524;49.396;2022-09-03T13:31:57;30.60;23.20
67182;DHT22;54114;53.524;49.396;2022-09-03T13:34:39;30.50;23.30
67182;DHT22;54114;53.524;49.396;2022-09-03T13:37:48;30.50;23.40
67182;DHT22;54114;53.524;49.396;2022-09-03T13:40:47;30.50;23.40
67182;DHT22;54114;53.524;49.396;2022-09-03T13:44:06;30.30;23.40
67182;DHT22;54114;53.524;49.396;2022-09-03T13:46:52;30.20;23.60
67182;DHT22;54114;53.524;49.396;2022-09-03T13:55:46;29.90;24.10
67182;DHT22;54114;53.524;49.396;2022-09-03T13:58:23;29.80;24.10
67182;DHT22;54114;53.524;49.396;2022-09-03T14:06:32;29.70;24.40
67182;DHT22;54114;53.524;49.396;2022-09-03T14:09:26;29.60;24.50
67182;DHT22;54114;53.524;49.396;2022-09-03T14:18:09;29.70;24.50
67182;DHT22;54114;53.524;49.396;2022-09-03T14:24:23;29.80;24.50
67182;DHT22;54114;53.524;49.396;2022-09-03T14:27:01;29.90;24.40
67182;DHT22;54114;53.524;49.396;2022-09-03T14:29:28;29.90;24.40
67182;DHT22;54114;53.524;49.396;2022-09-03T14:40:51;29.80;24.60
67182;DHT22;54114;53.524;49.396;2022-09-03T14:50:02;29.50;24.90
67182;DHT22;54114;53.524;49.396;2022-09-03T14:59:08;28.50;26.30
67182;DHT22;54114;53.524;49.396;2022-09-03T15:01:44;28.20;26.40
67182;DHT22;54114;53.524;49.396;2022-09-03T15:10:20;27.10;27.70
67182;DHT22;54114;53.524;49.396;2022-09-03T15:16:07;26.30;28.40
67182;DHT22;54114;53.524;49.396;2022-09-03T15:19:15;25.80;28.90
67182;DHT22;54114;53.524;49.396;2022-09-03T15:22:14;25.40;29.50
67182;DHT22;54114;53.524;49.396;2022-09-03T15:24:56;25.10;29.90
67182;DHT22;54114;53.524;49.396;2022-09-03T15:30:18;24.50;30.70
67182;DHT22;54114;53.524;49.396;2022-09-03T15:36:24;23.90;31.50
67182;DHT22;54114;53.524;49.396;2022-09-03T15:39:08;23.60;32.00
67182;DHT22;54114;53.524;49.396;2022-09-03T15:41:47;23.20;32.40
67182;DHT22;54114;53.524;49.396;2022-09-03T15:44:19;22.80;33.00
67182;DHT22;54114;53.524;49.396;2022-09-03T15:49:52;22.30;33.90
67182;DHT22;54114;53.524;49.396;2022-09-03T15:52:55;22.00;34.40
67182;DHT22;54114;53.524;49.396;2022-09-03T15:55:38;21.80;34.90
67182;DHT22;54114;53.524;49.396;2022-09-03T16:09:34;20.50;37.50
67182;DHT22;54114;53.524;49.396;2022-09-03T16:23:22;18.70;39.90
67182;DHT22;54114;53.524;49.396;2022-09-03T16:26:04;18.30;40.80
67182;DHT22;54114;53.524;49.396;2022-09-03T16:28:46;18.00;41.30
67182;DHT22;54114;53.524;49.396;2022-09-03T16:43:13;17.00;43.30
67182;DHT22;54114;53.524;49.396;2022-09-03T16:48:32;16.60;44.20
67182;DHT22;54114;53.524;49.396;2022-09-03T16:51:13;16.60;44.70
67182;DHT22;54114;53.524;49.396;2022-09-03T16:59:48;16.10;45.80
67182;DHT22;54114;53.524;49.396;2022-09-03T17:02:50;16.00;46.60
67182;DHT22;54114;53.524;49.396;2022-09-03T17:05:34;15.80;47.00
67182;DHT22;54114;53.524;49.396;2022-09-03T17:11:36;15.60;47.60
67182;DHT22;54114;53.524;49.396;2022-09-03T17:14:43;15.50;47.80
67182;DHT22;54114;53.524;49.396;2022-09-03T17:37:57;15.00;49.80
67182;DHT22;54114;53.524;49.396;2022-09-03T17:40:37;14.90;50.20
67182;DHT22;54114;53.524;49.396;2022-09-03T17:50:21;14.80;50.90
67182;DHT22;54114;53.524;49.396;2022-09-03T17:52:58;14.70;51.10
67182;DHT22;54114;53.524;49.396;2022-09-03T17:55:58;14.70;51.10
67182;DHT22;54114;53.524;49.396;2022-09-03T18:01:23;14.70;51.20
67182;DHT22;54114;53.524;49.396;2022-09-03T18:03:58;14.60;51.50
67182;DHT22;54114;53.524;49.396;2022-09-03T18:06:54;14.60;51.60
67182;DHT22;54114;53.524;49.396;2022-09-03T18:09:32;14.50;52.10
67182;DHT22;54114;53.524;49.396;2022-09-03T18:12:13;14.40;52.30
67182;DHT22;54114;53.524;49.396;2022-09-03T18:17:43;14.40;52.10
67182;DHT22;54114;53.524;49.396;2022-09-03T18:20:16;14.40;52.40
67182;DHT22;54114;53.524;49.396;2022-09-03T18:23:16;14.30;52.30
67182;DHT22;54114;53.524;49.396;2022-09-03T18:26:12;14.20;52.30
67182;DHT22;54114;53.524;49.396;2022-09-03T18:29:06;14.10;52.80
67182;DHT22;54114;53.524;49.396;2022-09-03T18:31:56;14.00;53.00
67182;DHT22;54114;53.524;49.396;2022-09-03T18:34:41;13.90;53.10
67182;DHT22;54114;53.524;49.396;2022-09-03T18:37:27;13.90;53.20
67182;DHT22;54114;53.524;49.396;2022-09-03T18:40:18;13.80;53.30
67182;DHT22;54114;53.524;49.396;2022-09-03T18:43:13;13.80;53.60
67182;DHT22;54114;53.524;49.396;2022-09-03T18:46:13;13.80;53.70
67182;DHT22;54114;53.524;49.396;2022-09-03T18:49:12;13.70;53.90
67182;DHT22;54114;53.524;49.396;2022-09-03T18:52:20;13.70;54.30
67182;DHT22;54114;53.524;49.396;2022-09-03T19:01:48;13.50;54.40
67182;DHT22;54114;53.524;49.396;2022-09-03T19:08:05;13.50;54.70
67182;DHT22;54114;53.524;49.396;2022-09-03T19:14:55;13.50;55.00
67182;DHT22;54114;53.524;49.396;2022-09-03T19:18:31;13.40;55.00
67182;DHT22;54114;53.524;49.396;2022-09-03T19:21:42;13.40;55.30
67182;DHT22;54114;53.524;49.396;2022-09-03T19:24:31;13.30;55.20
67182;DHT22;54114;53.524;49.396;2022-09-03T19:30:13;13.20;55.60
67182;DHT22;54114;53.524;49.396;2022-09-03T19:33:31;13.20;55.70
67182;DHT22;54114;53.524;49.396;2022-09-03T19:39:52;13.10;55.70
67182;DHT22;54114;53.524;49.396;2022-09-03T19:42:55;13.20;55.90
67182;DHT22;54114;53.524;49.396;2022-09-03T19:46:09;13.10;55.90
67182;DHT22;54114;53.524;49.396;2022-09-03T19:54:55;13.00;56.40
67182;DHT22;54114;53.524;49.396;2022-09-03T19:57:44;12.90;56.40
67182;DHT22;54114;53.524;49.396;2022-09-03T20:00:38;12.90;56.60
67182;DHT22;54114;53.524;49.396;2022-09-03T20:03:24;12.80;56.40
67182;DHT22;54114;53.524;49.396;2022-09-03T20:06:11;12.80;56.50
67182;DHT22;54114;53.524;49.396;2022-09-03T20:09:04;12.80;56.50
67182;DHT22;54114;53.524;49.396;2022-09-03T20:11:55;12.70;56.80
67182;DHT22;54114;53.524;49.396;2022-09-03T20:14:22;12.70;56.90
67182;DHT22;54114;53.524;49.396;2022-09-03T20:22:38;12.80;57.40
67182;DHT22;54114;53.524;49.396;2022-09-03T20:25:55;12.80;57.40
67182;DHT22;54114;53.524;49.396;2022-09-03T20:31:36;12.80;57.00
67182;DHT22;54114;53.524;49.396;2022-09-03T20:37:30;12.90;57.00
67182;DHT22;54114;53.524;49.396;2022-09-03T20:46:20;13.00;56.90
67182;DHT22;54114;53.524;49.396;2022-09-03T20:52:20;13.10;56.70
67182;DHT22;54114;53.524;49.396;2022-09-03T20:57:47;13.10;56.80
67182;DHT22;54114;53.524;49.396;2022-09-03T21:00:21;13.00;56.80
67182;DHT22;54114;53.524;49.396;2022-09-03T21:03:16;13.00;57.10
67182;DHT22;54114;53.524;49.396;2022-09-03T21:08:43;13.00;57.00
67182;DHT22;54114;53.524;49.396;2022-09-03T21:11:43;13.00;57.50
67182;DHT22;54114;53.524;49.396;2022-09-03T21:14:44;13.00;57.50
67182;DHT22;54114;53.524;49.396;2022-09-03T21:20:21;13.10;57.70
67182;DHT22;54114;53.524;49.396;2022-09-03T21:26:12;13.20;57.30
67182;DHT22;54114;53.524;49.396;2022-09-03T21:28:56;13.30;57.00
67182;DHT22;54114;53.524;49.396;2022-09-03T21:34:13;13.50;56.70
67182;DHT22;54114;53.524;49.396;2022-09-03T21:36:45;13.50;56.70
67182;DHT22;54114;53.524;49.396;2022-09-03T21:39:57;13.50;56.60
67182;DHT22;54114;53.524;49.396;2022-09-03T21:42:25;13.50;56.50
67182;DHT22;54114;53.524;49.396;2022-09-03T21:45:01;13.50;56.40
67182;DHT22;54114;53.524;49.396;2022-09-03T21:47:41;13.40;56.40
67182;DHT22;54114;53.524;49.396;2022-09-03T21:50:21;13.40;56.60
67182;DHT22;54114;53.524;49.396;2022-09-03T21:52:54;13.50;56.70
67182;DHT22;54114;53.524;49.396;2022-09-03T22:02:39;13.40;56.60
67182;DHT22;54114;53.524;49.396;2022-09-03T22:04:41;13.50;56.80
67182;DHT22;54114;53.524;49.396;2022-09-03T22:07:16;13.40;56.70
67182;DHT22;54114;53.524;49.396;2022-09-03T22:16:31;13.70;56.70
67182;DHT22;54114;53.524;49.396;2022-09-03T22:19:10;13.70;56.60
67182;DHT22;54114;53.524;49.396;2022-09-03T22:21:59;13.70;56.40
67182;DHT22;54114;53.524;49.396;2022-09-03T22:36:15;13.80;57.00
67182;DHT22;54114;53.524;49.396;2022-09-03T22:39:27;13.90;56.80